Kinston Regional Jetport At Stallings Field
KISO : now visible

Airfield :











YOU CAN JOIN US ON...

 
LOGIN :

Register | Disclaimer

   EN    FR    IT 

 









Legend :    VFR   Marginal VFR   IFR   Intensive IFR   Very Intensive IFR
Visi :
Ceiling :
>= 8 km
>= 3000ft
5 to 8 km
1000 to 3000 ft
1500m to 5 km
500 to 1000 ft
800 to 1500m
200 to 500 ft
< 800m
< 200 ft
Symbols :   Thunderstorms  Fog  Heavy snow  Heavy precipitations  Wind > 20 kt






- Airport Elevation : 93 ft


KISO - Kinston Regional Jetport At Stallings Field

CURRENT METAR :
  • 012256Z 21008KT 10SM SCT024 27/22 A3011

EXPIRED METARs :
  • 011556Z 17005KT 10SM SCT070 29/22 A3017
  • 012156Z 21009KT 10SM CLR 28/22 A3010
  • 012056Z 20012KT 10SM SCT025 28/22 A3012

TAF KISO
Valid from the 01 at 18:00 until the 02 at 18:00 UTC


011753Z 0118/0218 19008KT 6SM -SHRA VCTS SCT035CB BKN060
FM012200 19003KT P6SM BKN080
FM020900 00000KT P6SM SCT006 BKN030
FM021200 19004KT P6SM SCT006 BKN020 AMD LTD TO CLD VIS AND WIND
KZDC FIR / North America



MET'MAP, your aeronautical weather chart ! - Copyright ORBIFLY December 2007 - Disclaimer

ORBIFLY MET'MAP TEAM :

Programming & Development : Alexandra Zaïnal
Original concept : Baudouin d'Aumeries
Technical & hardware support : Manuel Goepfert
Assistance : Marc-Olivier Méhu




SOURCES & CREDITS :

   NOAA       Earth
Advisory